sensor_id;sensor_type;location;lat;lon;timestamp;pressure;altitude;pressure_sealevel;temperature;humidity
36502;BME280;25393;46.108;3.390;2023-04-24T00:01:57;97363.69;;;11.33;88.65
36502;BME280;25393;46.108;3.390;2023-04-24T00:04:24;97363.56;;;11.41;88.16
36502;BME280;25393;46.108;3.390;2023-04-24T00:06:52;97360.59;;;11.51;87.44
36502;BME280;25393;46.108;3.390;2023-04-24T00:09:23;97353.66;;;11.50;87.40
36502;BME280;25393;46.108;3.390;2023-04-24T00:11:50;97358.09;;;11.43;87.86
36502;BME280;25393;46.108;3.390;2023-04-24T00:14:17;97359.97;;;11.28;89.20
36502;BME280;25393;46.108;3.390;2023-04-24T00:16:43;97376.16;;;11.33;90.52
36502;BME280;25393;46.108;3.390;2023-04-24T00:19:10;97371.09;;;11.38;90.63
36502;BME280;25393;46.108;3.390;2023-04-24T00:21:38;97362.75;;;11.41;89.87
36502;BME280;25393;46.108;3.390;2023-04-24T00:24:04;97357.13;;;11.50;87.85
36502;BME280;25393;46.108;3.390;2023-04-24T00:26:31;97356.75;;;11.53;87.83
36502;BME280;25393;46.108;3.390;2023-04-24T00:28:57;97357.94;;;11.51;87.99
36502;BME280;25393;46.108;3.390;2023-04-24T00:31:24;97355.50;;;11.49;88.58
36502;BME280;25393;46.108;3.390;2023-04-24T00:33:50;97364.91;;;11.52;88.15
36502;BME280;25393;46.108;3.390;2023-04-24T00:36:17;97367.09;;;11.48;89.18
36502;BME280;25393;46.108;3.390;2023-04-24T00:38:45;97367.16;;;11.34;90.35
36502;BME280;25393;46.108;3.390;2023-04-24T00:41:12;97374.84;;;11.22;92.79
36502;BME280;25393;46.108;3.390;2023-04-24T00:43:39;97383.75;;;11.36;95.36
36502;BME280;25393;46.108;3.390;2023-04-24T00:46:06;97380.19;;;11.08;99.17
36502;BME280;25393;46.108;3.390;2023-04-24T00:48:35;97412.84;;;10.93;100.00
36502;BME280;25393;46.108;3.390;2023-04-24T00:51:03;97423.19;;;10.74;100.00
36502;BME280;25393;46.108;3.390;2023-04-24T00:53:29;97433.72;;;10.52;100.00
36502;BME280;25393;46.108;3.390;2023-04-24T00:55:56;97432.25;;;10.35;100.00
36502;BME280;25393;46.108;3.390;2023-04-24T00:58:23;97429.59;;;10.35;100.00
36502;BME280;25393;46.108;3.390;2023-04-24T01:00:51;97421.31;;;10.24;100.00
36502;BME280;25393;46.108;3.390;2023-04-24T01:03:24;97432.16;;;10.29;100.00
36502;BME280;25393;46.108;3.390;2023-04-24T01:05:54;97419.00;;;10.21;100.00
36502;BME280;25393;46.108;3.390;2023-04-24T01:08:24;97426.13;;;10.20;100.00
36502;BME280;25393;46.108;3.390;2023-04-24T01:10:52;97434.28;;;10.11;100.00
36502;BME280;25393;46.108;3.390;2023-04-24T01:13:19;97432.31;;;10.13;100.00
36502;BME280;25393;46.108;3.390;2023-04-24T01:15:47;97432.06;;;9.99;100.00
36502;BME280;25393;46.108;3.390;2023-04-24T01:18:15;97427.88;;;9.90;100.00
36502;BME280;25393;46.108;3.390;2023-04-24T01:20:42;97430.41;;;9.84;100.00
36502;BME280;25393;46.108;3.390;2023-04-24T01:23:13;97428.94;;;9.81;100.00
36502;BME280;25393;46.108;3.390;2023-04-24T01:25:42;97423.94;;;9.86;100.00
36502;BME280;25393;46.108;3.390;2023-04-24T01:28:09;97429.53;;;9.91;100.00
36502;BME280;25393;46.108;3.390;2023-04-24T01:30:43;97422.00;;;9.80;100.00
36502;BME280;25393;46.108;3.390;2023-04-24T01:33:09;97408.31;;;9.77;100.00
36502;BME280;25393;46.108;3.390;2023-04-24T01:35:43;97422.84;;;9.81;100.00
36502;BME280;25393;46.108;3.390;2023-04-24T01:38:09;97430.31;;;9.77;100.00
36502;BME280;25393;46.108;3.390;2023-04-24T01:40:37;97430.19;;;9.71;100.00
36502;BME280;25393;46.108;3.390;2023-04-24T01:43:04;97427.13;;;9.59;100.00
36502;BME280;25393;46.108;3.390;2023-04-24T01:45:31;97421.16;;;9.42;100.00
36502;BME280;25393;46.108;3.390;2023-04-24T01:47:57;97430.03;;;9.49;100.00
36502;BME280;25393;46.108;3.390;2023-04-24T01:50:24;97444.88;;;9.50;100.00
36502;BME280;25393;46.108;3.390;2023-04-24T01:52:51;97433.59;;;9.34;100.00
36502;BME280;25393;46.108;3.390;2023-04-24T01:55:18;97442.16;;;9.36;100.00
36502;BME280;25393;46.108;3.390;2023-04-24T01:57:44;97452.34;;;9.24;100.00
36502;BME280;25393;46.108;3.390;2023-04-24T02:00:12;97448.13;;;9.38;100.00
36502;BME280;25393;46.108;3.390;2023-04-24T02:02:44;97433.88;;;9.16;100.00
36502;BME280;25393;46.108;3.390;2023-04-24T02:05:13;97454.78;;;9.26;100.00
36502;BME280;25393;46.108;3.390;2023-04-24T02:07:40;97454.31;;;9.22;100.00
36502;BME280;25393;46.108;3.390;2023-04-24T02:10:09;97452.50;;;9.23;100.00
36502;BME280;25393;46.108;3.390;2023-04-24T02:12:36;97455.34;;;9.21;100.00
36502;BME280;25393;46.108;3.390;2023-04-24T02:15:03;97444.41;;;9.24;100.00
36502;BME280;25393;46.108;3.390;2023-04-24T02:17:30;97453.91;;;9.33;100.00
36502;BME280;25393;46.108;3.390;2023-04-24T02:19:57;97455.09;;;9.31;100.00
36502;BME280;25393;46.108;3.390;2023-04-24T02:22:23;97456.16;;;9.22;100.00
36502;BME280;25393;46.108;3.390;2023-04-24T02:24:50;97449.81;;;9.31;100.00
36502;BME280;25393;46.108;3.390;2023-04-24T02:27:16;97458.03;;;9.36;100.00
36502;BME280;25393;46.108;3.390;2023-04-24T02:29:44;97474.06;;;9.42;100.00
36502;BME280;25393;46.108;3.390;2023-04-24T02:32:11;97468.81;;;9.34;100.00
36502;BME280;25393;46.108;3.390;2023-04-24T02:34:39;97481.78;;;9.44;100.00
36502;BME280;25393;46.108;3.390;2023-04-24T02:37:05;97487.88;;;9.52;100.00
36502;BME280;25393;46.108;3.390;2023-04-24T02:39:32;97497.38;;;9.62;100.00
36502;BME280;25393;46.108;3.390;2023-04-24T02:41:58;97491.69;;;9.73;100.00
36502;BME280;25393;46.108;3.390;2023-04-24T02:44:26;97498.91;;;9.79;100.00
36502;BME280;25393;46.108;3.390;2023-04-24T02:46:52;97508.28;;;9.89;100.00
36502;BME280;25393;46.108;3.390;2023-04-24T02:49:19;97512.06;;;9.95;100.00
36502;BME280;25393;46.108;3.390;2023-04-24T02:51:46;97517.00;;;9.98;100.00
36502;BME280;25393;46.108;3.390;2023-04-24T02:54:12;97505.47;;;9.91;100.00
36502;BME280;25393;46.108;3.390;2023-04-24T02:56:40;97516.69;;;9.93;100.00
36502;BME280;25393;46.108;3.390;2023-04-24T02:59:07;97516.38;;;10.11;100.00
36502;BME280;25393;46.108;3.390;2023-04-24T03:01:34;97511.13;;;9.88;100.00
36502;BME280;25393;46.108;3.390;2023-04-24T03:04:01;97538.69;;;9.93;100.00
36502;BME280;25393;46.108;3.390;2023-04-24T03:06:28;97536.75;;;9.87;100.00
36502;BME280;25393;46.108;3.390;2023-04-24T03:08:54;97544.44;;;9.97;100.00
36502;BME280;25393;46.108;3.390;2023-04-24T03:11:21;97543.94;;;10.01;100.00
36502;BME280;25393;46.108;3.390;2023-04-24T03:13:47;97544.50;;;10.12;100.00
36502;BME280;25393;46.108;3.390;2023-04-24T03:16:14;97548.03;;;10.04;100.00
36502;BME280;25393;46.108;3.390;2023-04-24T03:18:43;97547.09;;;9.97;100.00
36502;BME280;25393;46.108;3.390;2023-04-24T03:21:09;97560.06;;;9.92;100.00
36502;BME280;25393;46.108;3.390;2023-04-24T03:23:36;97569.16;;;9.89;100.00
36502;BME280;25393;46.108;3.390;2023-04-24T03:26:02;97566.34;;;9.91;100.00
36502;BME280;25393;46.108;3.390;2023-04-24T03:28:29;97556.47;;;9.85;100.00
36502;BME280;25393;46.108;3.390;2023-04-24T03:30:55;97559.16;;;9.77;100.00
36502;BME280;25393;46.108;3.390;2023-04-24T03:33:22;97562.78;;;9.76;100.00
36502;BME280;25393;46.108;3.390;2023-04-24T03:35:48;97566.88;;;9.86;100.00
36502;BME280;25393;46.108;3.390;2023-04-24T03:38:15;97561.91;;;9.83;100.00
36502;BME280;25393;46.108;3.390;2023-04-24T03:40:41;97562.84;;;9.68;100.00
36502;BME280;25393;46.108;3.390;2023-04-24T03:43:08;97556.81;;;9.51;100.00
36502;BME280;25393;46.108;3.390;2023-04-24T03:45:34;97566.69;;;9.57;100.00
36502;BME280;25393;46.108;3.390;2023-04-24T03:48:01;97558.59;;;9.59;100.00
36502;BME280;25393;46.108;3.390;2023-04-24T03:50:27;97566.22;;;9.53;100.00
36502;BME280;25393;46.108;3.390;2023-04-24T03:52:55;97559.91;;;9.63;100.00
36502;BME280;25393;46.108;3.390;2023-04-24T03:55:22;97554.38;;;9.49;100.00
36502;BME280;25393;46.108;3.390;2023-04-24T03:57:52;97550.56;;;9.44;100.00
36502;BME280;25393;46.108;3.390;2023-04-24T04:00:21;97563.19;;;9.65;100.00
36502;BME280;25393;46.108;3.390;2023-04-24T04:02:51;97552.47;;;9.58;100.00
36502;BME280;25393;46.108;3.390;2023-04-24T04:05:21;97543.34;;;9.38;100.00
36502;BME280;25393;46.108;3.390;2023-04-24T04:07:47;97562.94;;;9.51;100.00
36502;BME280;25393;46.108;3.390;2023-04-24T04:10:16;97554.66;;;9.54;100.00
36502;BME280;25393;46.108;3.390;2023-04-24T04:12:44;97550.47;;;9.29;100.00
36502;BME280;25393;46.108;3.390;2023-04-24T04:15:10;97557.97;;;9.18;100.00
36502;BME280;25393;46.108;3.390;2023-04-24T04:17:37;97560.16;;;9.06;100.00
36502;BME280;25393;46.108;3.390;2023-04-24T04:20:05;97573.94;;;8.93;100.00
36502;BME280;25393;46.108;3.390;2023-04-24T04:22:36;97580.22;;;8.84;100.00
36502;BME280;25393;46.108;3.390;2023-04-24T04:25:03;97563.91;;;8.65;100.00
36502;BME280;25393;46.108;3.390;2023-04-24T04:27:30;97568.56;;;8.55;100.00
36502;BME280;25393;46.108;3.390;2023-04-24T04:29:58;97578.44;;;8.61;100.00
36502;BME280;25393;46.108;3.390;2023-04-24T04:32:27;97581.91;;;8.61;100.00
36502;BME280;25393;46.108;3.390;2023-04-24T04:34:54;97549.38;;;8.52;100.00
36502;BME280;25393;46.108;3.390;2023-04-24T04:37:23;97578.75;;;8.74;100.00
36502;BME280;25393;46.108;3.390;2023-04-24T04:39:49;97584.38;;;8.79;100.00
36502;BME280;25393;46.108;3.390;2023-04-24T04:42:18;97589.31;;;8.74;100.00
36502;BME280;25393;46.108;3.390;2023-04-24T04:44:45;97594.59;;;8.90;100.00
36502;BME280;25393;46.108;3.390;2023-04-24T04:47:11;97599.34;;;8.94;100.00
36502;BME280;25393;46.108;3.390;2023-04-24T04:49:38;97594.72;;;8.96;100.00
36502;BME280;25393;46.108;3.390;2023-04-24T04:52:05;97589.31;;;8.90;100.00
36502;BME280;25393;46.108;3.390;2023-04-24T04:54:31;97592.44;;;8.93;100.00
36502;BME280;25393;46.108;3.390;2023-04-24T04:56:58;97605.81;;;8.92;99.93
36502;BME280;25393;46.108;3.390;2023-04-24T04:59:25;97607.75;;;8.98;100.00
36502;BME280;25393;46.108;3.390;2023-04-24T05:01:51;97602.31;;;8.99;98.23
36502;BME280;25393;46.108;3.390;2023-04-24T05:04:19;97593.91;;;8.88;91.78
36502;BME280;25393;46.108;3.390;2023-04-24T05:06:47;97605.66;;;8.93;88.95
36502;BME280;25393;46.108;3.390;2023-04-24T05:09:13;97613.53;;;9.10;85.44
36502;BME280;25393;46.108;3.390;2023-04-24T05:11:40;97601.16;;;8.94;84.23
36502;BME280;25393;46.108;3.390;2023-04-24T05:14:06;97619.16;;;8.98;83.67
36502;BME280;25393;46.108;3.390;2023-04-24T05:16:33;97593.28;;;8.70;82.84
36502;BME280;25393;46.108;3.390;2023-04-24T05:18:59;97626.47;;;8.88;81.62
36502;BME280;25393;46.108;3.390;2023-04-24T05:21:26;97635.88;;;8.91;83.23
36502;BME280;25393;46.108;3.390;2023-04-24T05:23:53;97637.53;;;8.84;84.73
36502;BME280;25393;46.108;3.390;2023-04-24T05:26:19;97639.53;;;8.82;85.52
36502;BME280;25393;46.108;3.390;2023-04-24T05:28:48;97646.78;;;8.96;85.39
36502;BME280;25393;46.108;3.390;2023-04-24T05:31:14;97656.50;;;8.95;86.78
36502;BME280;25393;46.108;3.390;2023-04-24T05:33:41;97660.66;;;8.90;84.09
36502;BME280;25393;46.108;3.390;2023-04-24T05:36:07;97647.44;;;8.90;85.86
36502;BME280;25393;46.108;3.390;2023-04-24T05:38:34;97674.69;;;8.98;87.41
36502;BME280;25393;46.108;3.390;2023-04-24T05:41:00;97681.63;;;9.08;87.13
36502;BME280;25393;46.108;3.390;2023-04-24T05:43:27;97669.03;;;9.10;87.79
36502;BME280;25393;46.108;3.390;2023-04-24T05:45:54;97667.53;;;9.15;86.35
36502;BME280;25393;46.108;3.390;2023-04-24T05:48:23;97661.13;;;9.10;83.79
36502;BME280;25393;46.108;3.390;2023-04-24T05:50:53;97671.16;;;9.22;84.37
36502;BME280;25393;46.108;3.390;2023-04-24T05:53:19;97649.69;;;9.17;84.87
36502;BME280;25393;46.108;3.390;2023-04-24T05:55:48;97680.69;;;9.39;82.40
36502;BME280;25393;46.108;3.390;2023-04-24T05:58:15;97676.84;;;9.50;83.82
36502;BME280;25393;46.108;3.390;2023-04-24T06:00:41;97689.19;;;9.74;82.89
36502;BME280;25393;46.108;3.390;2023-04-24T06:03:10;97681.91;;;9.68;82.39
36502;BME280;25393;46.108;3.390;2023-04-24T06:05:37;97697.75;;;9.84;81.07
36502;BME280;25393;46.108;3.390;2023-04-24T06:08:04;97690.28;;;9.87;81.34
36502;BME280;25393;46.108;3.390;2023-04-24T06:10:30;97684.50;;;9.84;78.85
36502;BME280;25393;46.108;3.390;2023-04-24T06:12:57;97698.63;;;10.07;79.57
36502;BME280;25393;46.108;3.390;2023-04-24T06:15:28;97699.59;;;10.14;79.27
36502;BME280;25393;46.108;3.390;2023-04-24T06:17:55;97703.75;;;10.17;79.35
36502;BME280;25393;46.108;3.390;2023-04-24T06:20:23;97720.03;;;10.28;78.63
36502;BME280;25393;46.108;3.390;2023-04-24T06:22:50;97711.47;;;10.26;78.81
36502;BME280;25393;46.108;3.390;2023-04-24T06:25:20;97721.94;;;10.42;78.89
36502;BME280;25393;46.108;3.390;2023-04-24T06:27:54;97715.31;;;10.46;77.22
36502;BME280;25393;46.108;3.390;2023-04-24T06:30:24;97721.38;;;10.55;76.61
36502;BME280;25393;46.108;3.390;2023-04-24T06:32:53;97717.50;;;10.66;76.66
36502;BME280;25393;46.108;3.390;2023-04-24T06:35:25;97720.38;;;10.79;75.85
36502;BME280;25393;46.108;3.390;2023-04-24T06:37:51;97716.94;;;10.93;74.84
36502;BME280;25393;46.108;3.390;2023-04-24T06:40:19;97736.34;;;10.93;73.58
36502;BME280;25393;46.108;3.390;2023-04-24T06:42:46;97721.31;;;10.86;75.01
36502;BME280;25393;46.108;3.390;2023-04-24T06:45:13;97733.53;;;11.10;75.25
36502;BME280;25393;46.108;3.390;2023-04-24T06:47:39;97732.44;;;11.04;74.17
36502;BME280;25393;46.108;3.390;2023-04-24T06:50:06;97725.31;;;11.19;75.55
36502;BME280;25393;46.108;3.390;2023-04-24T06:52:32;97723.69;;;11.18;74.21
36502;BME280;25393;46.108;3.390;2023-04-24T06:55:00;97745.75;;;11.33;74.36
36502;BME280;25393;46.108;3.390;2023-04-24T06:57:28;97731.56;;;11.26;73.93
36502;BME280;25393;46.108;3.390;2023-04-24T06:59:55;97717.69;;;11.39;71.64
36502;BME280;25393;46.108;3.390;2023-04-24T07:02:22;97720.44;;;11.45;72.13
36502;BME280;25393;46.108;3.390;2023-04-24T07:04:49;97754.44;;;11.94;73.21
36502;BME280;25393;46.108;3.390;2023-04-24T07:07:18;97737.66;;;11.93;68.68
36502;BME280;25393;46.108;3.390;2023-04-24T07:09:44;97755.34;;;12.16;69.88
36502;BME280;25393;46.108;3.390;2023-04-24T07:12:12;97746.44;;;12.23;67.79
36502;BME280;25393;46.108;3.390;2023-04-24T07:14:39;97749.91;;;12.38;69.78
36502;BME280;25393;46.108;3.390;2023-04-24T07:17:06;97728.38;;;12.19;68.24
36502;BME280;25393;46.108;3.390;2023-04-24T07:19:33;97754.59;;;12.22;67.06
36502;BME280;25393;46.108;3.390;2023-04-24T07:22:00;97759.25;;;12.34;69.50
36502;BME280;25393;46.108;3.390;2023-04-24T07:24:27;97757.22;;;12.72;71.67
36502;BME280;25393;46.108;3.390;2023-04-24T07:26:55;97756.75;;;12.47;66.71
36502;BME280;25393;46.108;3.390;2023-04-24T07:29:23;97757.38;;;12.71;70.42
36502;BME280;25393;46.108;3.390;2023-04-24T07:31:49;97736.34;;;13.12;66.71
36502;BME280;25393;46.108;3.390;2023-04-24T07:34:17;97756.00;;;13.66;66.86
36502;BME280;25393;46.108;3.390;2023-04-24T07:36:43;97750.06;;;13.36;64.71
36502;BME280;25393;46.108;3.390;2023-04-24T07:39:10;97764.25;;;13.43;67.98
36502;BME280;25393;46.108;3.390;2023-04-24T07:41:36;97736.00;;;13.21;65.58
36502;BME280;25393;46.108;3.390;2023-04-24T07:44:03;97770.44;;;13.50;66.86
36502;BME280;25393;46.108;3.390;2023-04-24T07:46:30;97769.84;;;13.55;69.31
36502;BME280;25393;46.108;3.390;2023-04-24T07:48:56;97740.44;;;13.14;66.17
36502;BME280;25393;46.108;3.390;2023-04-24T07:51:39;97739.19;;;13.10;65.01
36502;BME280;25393;46.108;3.390;2023-04-24T07:54:07;97776.28;;;13.39;66.18
36502;BME280;25393;46.108;3.390;2023-04-24T07:56:34;97776.03;;;13.13;64.01
36502;BME280;25393;46.108;3.390;2023-04-24T07:59:05;97771.75;;;13.12;67.49
36502;BME280;25393;46.108;3.390;2023-04-24T08:01:31;97772.63;;;13.40;65.61
36502;BME280;25393;46.108;3.390;2023-04-24T08:03:58;97766.75;;;13.51;61.40
36502;BME280;25393;46.108;3.390;2023-04-24T08:06:25;97765.16;;;13.29;63.67
36502;BME280;25393;46.108;3.390;2023-04-24T08:08:57;97774.69;;;13.02;61.35
36502;BME280;25393;46.108;3.390;2023-04-24T08:11:24;97779.03;;;12.32;59.76
36502;BME280;25393;46.108;3.390;2023-04-24T08:13:51;97768.00;;;11.84;65.13
36502;BME280;25393;46.108;3.390;2023-04-24T08:16:20;97790.44;;;11.82;61.86
36502;BME280;25393;46.108;3.390;2023-04-24T08:18:49;97791.50;;;11.73;62.96
36502;BME280;25393;46.108;3.390;2023-04-24T08:21:19;97778.88;;;11.89;61.65
36502;BME280;25393;46.108;3.390;2023-04-24T08:23:47;97776.75;;;12.14;60.06
36502;BME280;25393;46.108;3.390;2023-04-24T08:26:14;97777.06;;;12.55;59.81
36502;BME280;25393;46.108;3.390;2023-04-24T08:28:40;97767.34;;;12.62;60.84
36502;BME280;25393;46.108;3.390;2023-04-24T08:31:07;97780.09;;;13.58;55.79
36502;BME280;25393;46.108;3.390;2023-04-24T08:33:34;97775.97;;;14.18;54.37
36502;BME280;25393;46.108;3.390;2023-04-24T08:36:05;97769.63;;;13.84;53.26
36502;BME280;25393;46.108;3.390;2023-04-24T08:38:31;97766.31;;;13.06;52.23
36502;BME280;25393;46.108;3.390;2023-04-24T08:41:00;97774.31;;;13.27;54.01
36502;BME280;25393;46.108;3.390;2023-04-24T08:43:36;97776.84;;;13.63;52.79
36502;BME280;25393;46.108;3.390;2023-04-24T08:46:15;97770.91;;;13.61;52.72
36502;BME280;25393;46.108;3.390;2023-04-24T08:48:43;97779.38;;;13.43;53.18
36502;BME280;25393;46.108;3.390;2023-04-24T08:51:10;97766.31;;;13.06;53.44
36502;BME280;25393;46.108;3.390;2023-04-24T08:53:38;97768.66;;;13.58;51.03
36502;BME280;25393;46.108;3.390;2023-04-24T08:56:05;97761.56;;;13.71;52.31
36502;BME280;25393;46.108;3.390;2023-04-24T08:58:32;97760.09;;;13.69;51.91
36502;BME280;25393;46.108;3.390;2023-04-24T09:01:00;97753.84;;;13.83;52.67
36502;BME280;25393;46.108;3.390;2023-04-24T09:03:28;97766.16;;;13.84;50.67
36502;BME280;25393;46.108;3.390;2023-04-24T09:05:57;97758.84;;;13.92;50.00
36502;BME280;25393;46.108;3.390;2023-04-24T09:08:25;97736.09;;;13.96;51.24
36502;BME280;25393;46.108;3.390;2023-04-24T09:10:54;97744.22;;;14.29;52.47
36502;BME280;25393;46.108;3.390;2023-04-24T09:13:25;97756.06;;;14.14;50.10
36502;BME280;25393;46.108;3.390;2023-04-24T09:15:53;97745.84;;;13.83;48.04
36502;BME280;25393;46.108;3.390;2023-04-24T09:18:21;97736.19;;;13.47;50.30
36502;BME280;25393;46.108;3.390;2023-04-24T09:21:12;97755.44;;;13.43;51.03
36502;BME280;25393;46.108;3.390;2023-04-24T09:23:39;97757.59;;;13.61;49.44
36502;BME280;25393;46.108;3.390;2023-04-24T09:26:05;97761.47;;;13.58;51.00
36502;BME280;25393;46.108;3.390;2023-04-24T09:28:36;97757.81;;;13.66;50.37
36502;BME280;25393;46.108;3.390;2023-04-24T09:31:11;97750.38;;;13.82;51.41
36502;BME280;25393;46.108;3.390;2023-04-24T09:33:39;97751.59;;;13.86;51.84
36502;BME280;25393;46.108;3.390;2023-04-24T09:36:06;97756.72;;;13.54;52.83
36502;BME280;25393;46.108;3.390;2023-04-24T09:38:36;97742.03;;;13.30;52.32
36502;BME280;25393;46.108;3.390;2023-04-24T09:41:06;97755.69;;;13.27;53.28
36502;BME280;25393;46.108;3.390;2023-04-24T09:43:33;97760.38;;;13.03;54.47
36502;BME280;25393;46.108;3.390;2023-04-24T09:46:07;97753.13;;;12.91;55.39
36502;BME280;25393;46.108;3.390;2023-04-24T09:48:37;97761.31;;;12.96;55.53
36502;BME280;25393;46.108;3.390;2023-04-24T09:51:05;97751.56;;;13.03;54.39
36502;BME280;25393;46.108;3.390;2023-04-24T09:53:37;97733.34;;;13.00;55.53
36502;BME280;25393;46.108;3.390;2023-04-24T09:56:09;97765.97;;;13.30;55.04
36502;BME280;25393;46.108;3.390;2023-04-24T09:58:36;97756.69;;;13.19;53.66
36502;BME280;25393;46.108;3.390;2023-04-24T10:01:04;97761.66;;;13.08;55.23
36502;BME280;25393;46.108;3.390;2023-04-24T10:03:35;97759.75;;;13.01;54.62
36502;BME280;25393;46.108;3.390;2023-04-24T10:06:03;97758.22;;;12.92;53.88
36502;BME280;25393;46.108;3.390;2023-04-24T10:08:36;97760.31;;;12.76;55.37
36502;BME280;25393;46.108;3.390;2023-04-24T10:11:04;97769.19;;;12.83;54.53
36502;BME280;25393;46.108;3.390;2023-04-24T10:13:32;97758.03;;;12.73;55.72
36502;BME280;25393;46.108;3.390;2023-04-24T10:16:00;97761.16;;;12.97;54.46
36502;BME280;25393;46.108;3.390;2023-04-24T10:18:29;97771.59;;;13.20;56.48
36502;BME280;25393;46.108;3.390;2023-04-24T10:20:56;97766.09;;;13.22;54.74
36502;BME280;25393;46.108;3.390;2023-04-24T10:23:25;97769.97;;;13.19;57.69
36502;BME280;25393;46.108;3.390;2023-04-24T10:25:54;97764.63;;;13.40;52.21
36502;BME280;25393;46.108;3.390;2023-04-24T10:28:25;97759.75;;;13.44;56.49
36502;BME280;25393;46.108;3.390;2023-04-24T10:30:55;97778.38;;;13.72;53.31
36502;BME280;25393;46.108;3.390;2023-04-24T10:33:25;97780.75;;;13.94;54.67
36502;BME280;25393;46.108;3.390;2023-04-24T10:35:56;97773.06;;;14.13;52.91
36502;BME280;25393;46.108;3.390;2023-04-24T10:38:26;97772.88;;;14.14;50.35
36502;BME280;25393;46.108;3.390;2023-04-24T10:41:07;97772.00;;;14.41;49.99
36502;BME280;25393;46.108;3.390;2023-04-24T10:43:34;97750.72;;;14.61;50.87
36502;BME280;25393;46.108;3.390;2023-04-24T10:46:03;97723.09;;;14.88;49.67
36502;BME280;25393;46.108;3.390;2023-04-24T10:48:30;97772.59;;;15.24;48.73
36502;BME280;25393;46.108;3.390;2023-04-24T10:50:58;97757.41;;;15.18;49.92
36502;BME280;25393;46.108;3.390;2023-04-24T10:53:29;97761.28;;;14.95;52.53
36502;BME280;25393;46.108;3.390;2023-04-24T10:58:40;97766.56;;;14.69;50.48
36502;BME280;25393;46.108;3.390;2023-04-24T11:01:07;97762.25;;;14.68;50.29
36502;BME280;25393;46.108;3.390;2023-04-24T11:03:35;97765.81;;;15.15;53.25
36502;BME280;25393;46.108;3.390;2023-04-24T11:06:07;97762.72;;;15.96;51.21
36502;BME280;25393;46.108;3.390;2023-04-24T11:08:44;97755.25;;;16.18;49.73
36502;BME280;25393;46.108;3.390;2023-04-24T11:11:13;97752.03;;;15.83;48.79
36502;BME280;25393;46.108;3.390;2023-04-24T11:19:09;97767.09;;;14.45;53.50
36502;BME280;25393;46.108;3.390;2023-04-24T11:24:27;97779.63;;;14.51;51.15
36502;BME280;25393;46.108;3.390;2023-04-24T11:27:05;97780.13;;;14.27;53.51
36502;BME280;25393;46.108;3.390;2023-04-24T11:32:46;97760.22;;;16.66;46.76
36502;BME280;25393;46.108;3.390;2023-04-24T11:35:46;97708.84;;;16.82;47.34
36502;BME280;25393;46.108;3.390;2023-04-24T11:38:16;97743.59;;;16.57;47.76
36502;BME280;25393;46.108;3.390;2023-04-24T11:40:51;97749.31;;;16.61;45.16
36502;BME280;25393;46.108;3.390;2023-04-24T11:43:18;97721.28;;;16.32;48.17
36502;BME280;25393;46.108;3.390;2023-04-24T11:45:48;97746.69;;;16.47;45.76
36502;BME280;25393;46.108;3.390;2023-04-24T11:48:19;97750.72;;;16.19;46.40
36502;BME280;25393;46.108;3.390;2023-04-24T11:50:49;97754.88;;;16.02;45.71
36502;BME280;25393;46.108;3.390;2023-04-24T11:53:19;97742.00;;;15.66;46.70
36502;BME280;25393;46.108;3.390;2023-04-24T11:55:46;97749.03;;;15.54;45.19
36502;BME280;25393;46.108;3.390;2023-04-24T11:58:13;97738.88;;;15.88;43.68
36502;BME280;25393;46.108;3.390;2023-04-24T12:00:39;97729.47;;;16.81;46.89
36502;BME280;25393;46.108;3.390;2023-04-24T12:03:08;97741.78;;;17.14;44.66
36502;BME280;25393;46.108;3.390;2023-04-24T12:05:35;97743.25;;;16.85;44.80
36502;BME280;25393;46.108;3.390;2023-04-24T12:08:02;97742.53;;;17.27;42.52
36502;BME280;25393;46.108;3.390;2023-04-24T12:10:30;97744.41;;;17.76;42.19
36502;BME280;25393;46.108;3.390;2023-04-24T12:12:58;97725.19;;;18.16;41.01
36502;BME280;25393;46.108;3.390;2023-04-24T12:15:27;97723.25;;;18.89;40.14
36502;BME280;25393;46.108;3.390;2023-04-24T12:17:58;97710.00;;;20.33;41.44
36502;BME280;25393;46.108;3.390;2023-04-24T12:20:30;97716.97;;;20.74;39.97
36502;BME280;25393;46.108;3.390;2023-04-24T12:22:58;97717.47;;;20.31;39.33
36502;BME280;25393;46.108;3.390;2023-04-24T12:25:30;97700.34;;;19.51;41.10
36502;BME280;25393;46.108;3.390;2023-04-24T12:30:35;97722.34;;;20.46;38.11
36502;BME280;25393;46.108;3.390;2023-04-24T12:33:02;97718.69;;;20.01;38.96
36502;BME280;25393;46.108;3.390;2023-04-24T12:35:31;97706.59;;;19.10;41.64
36502;BME280;25393;46.108;3.390;2023-04-24T12:38:11;97711.00;;;19.05;42.44
36502;BME280;25393;46.108;3.390;2023-04-24T12:40:40;97699.59;;;19.32;38.76
36502;BME280;25393;46.108;3.390;2023-04-24T12:43:15;97699.03;;;19.88;43.09
36502;BME280;25393;46.108;3.390;2023-04-24T12:45:42;97694.84;;;19.34;40.93
36502;BME280;25393;46.108;3.390;2023-04-24T12:48:08;97704.81;;;19.04;38.72
36502;BME280;25393;46.108;3.390;2023-04-24T12:50:35;97689.94;;;18.78;38.71
36502;BME280;25393;46.108;3.390;2023-04-24T12:53:02;97701.28;;;18.14;40.82
36502;BME280;25393;46.108;3.390;2023-04-24T12:55:28;97707.88;;;17.08;40.98
36502;BME280;25393;46.108;3.390;2023-04-24T12:57:55;97705.88;;;16.65;42.90
36502;BME280;25393;46.108;3.390;2023-04-24T13:00:23;97689.28;;;17.37;44.76
36502;BME280;25393;46.108;3.390;2023-04-24T13:02:49;97682.44;;;17.66;41.32
36502;BME280;25393;46.108;3.390;2023-04-24T13:05:16;97685.41;;;18.13;43.31
36502;BME280;25393;46.108;3.390;2023-04-24T13:07:43;97679.56;;;17.86;42.82
36502;BME280;25393;46.108;3.390;2023-04-24T13:10:09;97685.00;;;17.98;43.64
36502;BME280;25393;46.108;3.390;2023-04-24T13:12:36;97678.13;;;18.79;40.42
36502;BME280;25393;46.108;3.390;2023-04-24T13:15:04;97668.72;;;18.29;40.58
36502;BME280;25393;46.108;3.390;2023-04-24T13:17:31;97676.41;;;18.25;43.48
36502;BME280;25393;46.108;3.390;2023-04-24T13:19:57;97659.97;;;18.52;40.58
36502;BME280;25393;46.108;3.390;2023-04-24T13:22:27;97630.22;;;19.18;40.50